sensor_id;sensor_type;location;lat;lon;timestamp;P1;durP1;ratioP1;P2;durP2;ratioP2
44508;SDS011;30214;52.246;14.408;2023-05-14T00:01:25;12.93;;;6.43;;
44508;SDS011;30214;52.246;14.408;2023-05-14T00:03:52;8.77;;;7.00;;
44508;SDS011;30214;52.246;14.408;2023-05-14T00:06:19;15.50;;;6.97;;
44508;SDS011;30214;52.246;14.408;2023-05-14T00:08:46;12.38;;;6.85;;
44508;SDS011;30214;52.246;14.408;2023-05-14T00:11:13;10.20;;;7.03;;
44508;SDS011;30214;52.246;14.408;2023-05-14T00:13:43;12.77;;;7.00;;
44508;SDS011;30214;52.246;14.408;2023-05-14T00:16:10;9.60;;;7.00;;
44508;SDS011;30214;52.246;14.408;2023-05-14T00:18:37;9.88;;;6.60;;
44508;SDS011;30214;52.246;14.408;2023-05-14T00:21:04;12.13;;;7.00;;
44508;SDS011;30214;52.246;14.408;2023-05-14T00:23:31;11.80;;;7.25;;
44508;SDS011;30214;52.246;14.408;2023-05-14T00:25:58;11.73;;;6.65;;
44508;SDS011;30214;52.246;14.408;2023-05-14T00:28:25;14.05;;;7.05;;
44508;SDS011;30214;52.246;14.408;2023-05-14T00:30:53;8.35;;;6.53;;
44508;SDS011;30214;52.246;14.408;2023-05-14T00:33:21;13.07;;;7.03;;
44508;SDS011;30214;52.246;14.408;2023-05-14T00:35:48;9.70;;;6.50;;
44508;SDS011;30214;52.246;14.408;2023-05-14T00:38:15;10.77;;;7.13;;
44508;SDS011;30214;52.246;14.408;2023-05-14T00:40:43;9.10;;;6.88;;
44508;SDS011;30214;52.246;14.408;2023-05-14T00:43:15;9.30;;;6.68;;
44508;SDS011;30214;52.246;14.408;2023-05-14T00:45:43;13.05;;;7.20;;
44508;SDS011;30214;52.246;14.408;2023-05-14T00:48:12;13.23;;;6.95;;
44508;SDS011;30214;52.246;14.408;2023-05-14T00:50:39;9.98;;;6.80;;
44508;SDS011;30214;52.246;14.408;2023-05-14T00:53:07;10.10;;;6.30;;
44508;SDS011;30214;52.246;14.408;2023-05-14T00:55:35;9.02;;;6.70;;
44508;SDS011;30214;52.246;14.408;2023-05-14T00:58:03;10.25;;;6.75;;
44508;SDS011;30214;52.246;14.408;2023-05-14T01:00:35;11.90;;;8.23;;
44508;SDS011;30214;52.246;14.408;2023-05-14T01:03:03;15.25;;;6.55;;
44508;SDS011;30214;52.246;14.408;2023-05-14T01:05:34;13.30;;;6.80;;
44508;SDS011;30214;52.246;14.408;2023-05-14T01:08:08;8.13;;;6.43;;
44508;SDS011;30214;52.246;14.408;2023-05-14T01:10:44;8.60;;;6.38;;
44508;SDS011;30214;52.246;14.408;2023-05-14T01:13:21;9.32;;;6.60;;
44508;SDS011;30214;52.246;14.408;2023-05-14T01:15:57;10.70;;;7.03;;
44508;SDS011;30214;52.246;14.408;2023-05-14T01:18:27;8.85;;;6.18;;
44508;SDS011;30214;52.246;14.408;2023-05-14T01:20:56;10.57;;;7.22;;
44508;SDS011;30214;52.246;14.408;2023-05-14T01:23:24;13.82;;;6.45;;
44508;SDS011;30214;52.246;14.408;2023-05-14T01:25:51;14.20;;;6.30;;
44508;SDS011;30214;52.246;14.408;2023-05-14T01:28:22;11.25;;;6.50;;
44508;SDS011;30214;52.246;14.408;2023-05-14T01:30:56;9.68;;;6.57;;
44508;SDS011;30214;52.246;14.408;2023-05-14T01:33:28;9.18;;;6.30;;
44508;SDS011;30214;52.246;14.408;2023-05-14T01:35:56;9.55;;;6.65;;
44508;SDS011;30214;52.246;14.408;2023-05-14T01:38:23;7.80;;;6.65;;
44508;SDS011;30214;52.246;14.408;2023-05-14T01:40:58;10.70;;;6.28;;
44508;SDS011;30214;52.246;14.408;2023-05-14T01:43:26;10.45;;;6.00;;
44508;SDS011;30214;52.246;14.408;2023-05-14T01:45:54;9.63;;;7.00;;
44508;SDS011;30214;52.246;14.408;2023-05-14T01:48:23;11.13;;;6.70;;
44508;SDS011;30214;52.246;14.408;2023-05-14T01:50:51;10.95;;;6.40;;
44508;SDS011;30214;52.246;14.408;2023-05-14T01:53:18;15.02;;;7.13;;
44508;SDS011;30214;52.246;14.408;2023-05-14T01:55:47;11.23;;;6.70;;
44508;SDS011;30214;52.246;14.408;2023-05-14T01:58:14;9.70;;;6.70;;
44508;SDS011;30214;52.246;14.408;2023-05-14T02:00:42;14.32;;;6.72;;
44508;SDS011;30214;52.246;14.408;2023-05-14T02:03:09;10.50;;;6.82;;
44508;SDS011;30214;52.246;14.408;2023-05-14T02:05:36;11.07;;;6.60;;
44508;SDS011;30214;52.246;14.408;2023-05-14T02:08:03;11.65;;;6.25;;
44508;SDS011;30214;52.246;14.408;2023-05-14T02:10:31;9.48;;;6.57;;
44508;SDS011;30214;52.246;14.408;2023-05-14T02:12:59;11.95;;;6.50;;
44508;SDS011;30214;52.246;14.408;2023-05-14T02:15:26;10.32;;;7.47;;
44508;SDS011;30214;52.246;14.408;2023-05-14T02:17:53;11.48;;;6.80;;
44508;SDS011;30214;52.246;14.408;2023-05-14T02:20:20;10.93;;;7.03;;
44508;SDS011;30214;52.246;14.408;2023-05-14T02:22:47;8.85;;;6.82;;
44508;SDS011;30214;52.246;14.408;2023-05-14T02:25:14;11.30;;;7.00;;
44508;SDS011;30214;52.246;14.408;2023-05-14T02:27:42;13.73;;;7.40;;
44508;SDS011;30214;52.246;14.408;2023-05-14T02:30:11;10.82;;;6.50;;
44508;SDS011;30214;52.246;14.408;2023-05-14T02:32:38;16.55;;;7.10;;
44508;SDS011;30214;52.246;14.408;2023-05-14T02:35:05;11.45;;;6.60;;
44508;SDS011;30214;52.246;14.408;2023-05-14T02:37:33;10.75;;;7.22;;
44508;SDS011;30214;52.246;14.408;2023-05-14T02:40:00;10.82;;;7.57;;
44508;SDS011;30214;52.246;14.408;2023-05-14T02:42:28;8.85;;;6.95;;
44508;SDS011;30214;52.246;14.408;2023-05-14T02:44:55;15.63;;;7.07;;
44508;SDS011;30214;52.246;14.408;2023-05-14T02:47:24;10.70;;;7.63;;
44508;SDS011;30214;52.246;14.408;2023-05-14T02:49:51;11.75;;;7.07;;
44508;SDS011;30214;52.246;14.408;2023-05-14T02:52:18;9.38;;;7.53;;
44508;SDS011;30214;52.246;14.408;2023-05-14T02:54:45;10.82;;;6.90;;
44508;SDS011;30214;52.246;14.408;2023-05-14T02:57:12;9.88;;;6.95;;
44508;SDS011;30214;52.246;14.408;2023-05-14T02:59:39;11.93;;;7.15;;
44508;SDS011;30214;52.246;14.408;2023-05-14T03:02:06;11.20;;;7.30;;
44508;SDS011;30214;52.246;14.408;2023-05-14T03:04:35;13.32;;;7.63;;
44508;SDS011;30214;52.246;14.408;2023-05-14T03:07:02;12.95;;;8.18;;
44508;SDS011;30214;52.246;14.408;2023-05-14T03:09:29;10.93;;;7.57;;
44508;SDS011;30214;52.246;14.408;2023-05-14T03:11:59;11.32;;;7.70;;
44508;SDS011;30214;52.246;14.408;2023-05-14T03:14:26;13.02;;;7.57;;
44508;SDS011;30214;52.246;14.408;2023-05-14T03:16:53;11.85;;;8.07;;
44508;SDS011;30214;52.246;14.408;2023-05-14T03:19:20;15.20;;;7.40;;
44508;SDS011;30214;52.246;14.408;2023-05-14T03:21:49;9.30;;;7.57;;
44508;SDS011;30214;52.246;14.408;2023-05-14T03:24:16;11.73;;;7.60;;
44508;SDS011;30214;52.246;14.408;2023-05-14T03:26:43;18.10;;;8.38;;
44508;SDS011;30214;52.246;14.408;2023-05-14T03:29:10;11.60;;;7.80;;
44508;SDS011;30214;52.246;14.408;2023-05-14T03:31:38;10.20;;;7.50;;
44508;SDS011;30214;52.246;14.408;2023-05-14T03:34:05;9.27;;;7.40;;
44508;SDS011;30214;52.246;14.408;2023-05-14T03:36:32;13.48;;;7.22;;
44508;SDS011;30214;52.246;14.408;2023-05-14T03:39:01;9.57;;;8.00;;
44508;SDS011;30214;52.246;14.408;2023-05-14T03:41:30;8.93;;;7.53;;
44508;SDS011;30214;52.246;14.408;2023-05-14T03:44:00;10.15;;;7.72;;
44508;SDS011;30214;52.246;14.408;2023-05-14T03:46:27;10.38;;;7.45;;
44508;SDS011;30214;52.246;14.408;2023-05-14T03:48:55;13.05;;;7.72;;
44508;SDS011;30214;52.246;14.408;2023-05-14T03:51:22;10.63;;;7.80;;
44508;SDS011;30214;52.246;14.408;2023-05-14T03:53:49;12.15;;;7.43;;
44508;SDS011;30214;52.246;14.408;2023-05-14T03:56:17;9.48;;;7.40;;
44508;SDS011;30214;52.246;14.408;2023-05-14T03:58:45;10.70;;;7.78;;
44508;SDS011;30214;52.246;14.408;2023-05-14T04:01:13;11.73;;;7.43;;
44508;SDS011;30214;52.246;14.408;2023-05-14T04:03:40;15.88;;;8.20;;
44508;SDS011;30214;52.246;14.408;2023-05-14T04:06:08;10.98;;;7.78;;
44508;SDS011;30214;52.246;14.408;2023-05-14T04:08:35;11.13;;;7.53;;
44508;SDS011;30214;52.246;14.408;2023-05-14T04:11:02;10.75;;;7.70;;
44508;SDS011;30214;52.246;14.408;2023-05-14T04:13:31;13.23;;;7.78;;
44508;SDS011;30214;52.246;14.408;2023-05-14T04:15:58;15.88;;;7.75;;
44508;SDS011;30214;52.246;14.408;2023-05-14T04:18:25;12.20;;;7.43;;
44508;SDS011;30214;52.246;14.408;2023-05-14T04:20:53;13.23;;;7.88;;
44508;SDS011;30214;52.246;14.408;2023-05-14T04:23:20;14.40;;;7.07;;
44508;SDS011;30214;52.246;14.408;2023-05-14T04:25:47;10.85;;;7.05;;
44508;SDS011;30214;52.246;14.408;2023-05-14T04:28:14;10.50;;;7.57;;
44508;SDS011;30214;52.246;14.408;2023-05-14T04:30:43;9.60;;;6.90;;
44508;SDS011;30214;52.246;14.408;2023-05-14T04:33:10;11.30;;;7.60;;
44508;SDS011;30214;52.246;14.408;2023-05-14T04:35:37;15.75;;;7.22;;
44508;SDS011;30214;52.246;14.408;2023-05-14T04:38:04;11.05;;;7.18;;
44508;SDS011;30214;52.246;14.408;2023-05-14T04:40:31;12.77;;;7.57;;
44508;SDS011;30214;52.246;14.408;2023-05-14T04:42:58;11.00;;;7.50;;
44508;SDS011;30214;52.246;14.408;2023-05-14T04:45:25;12.48;;;7.18;;
44508;SDS011;30214;52.246;14.408;2023-05-14T04:47:54;11.85;;;7.03;;
44508;SDS011;30214;52.246;14.408;2023-05-14T04:50:21;10.10;;;6.93;;
44508;SDS011;30214;52.246;14.408;2023-05-14T04:52:48;9.32;;;6.57;;
44508;SDS011;30214;52.246;14.408;2023-05-14T04:55:15;9.30;;;7.18;;
44508;SDS011;30214;52.246;14.408;2023-05-14T04:57:42;9.40;;;6.32;;
44508;SDS011;30214;52.246;14.408;2023-05-14T05:00:10;10.35;;;7.00;;
44508;SDS011;30214;52.246;14.408;2023-05-14T05:02:38;11.05;;;7.10;;
44508;SDS011;30214;52.246;14.408;2023-05-14T05:05:07;10.38;;;6.68;;
44508;SDS011;30214;52.246;14.408;2023-05-14T05:07:37;11.43;;;6.72;;
44508;SDS011;30214;52.246;14.408;2023-05-14T05:10:05;12.38;;;7.00;;
44508;SDS011;30214;52.246;14.408;2023-05-14T05:12:34;14.65;;;6.82;;
44508;SDS011;30214;52.246;14.408;2023-05-14T05:15:01;8.70;;;6.43;;
44508;SDS011;30214;52.246;14.408;2023-05-14T05:17:28;11.73;;;7.15;;
44508;SDS011;30214;52.246;14.408;2023-05-14T05:19:55;13.88;;;7.43;;
44508;SDS011;30214;52.246;14.408;2023-05-14T05:22:24;12.32;;;7.05;;
44508;SDS011;30214;52.246;14.408;2023-05-14T05:24:51;11.40;;;6.63;;
44508;SDS011;30214;52.246;14.408;2023-05-14T05:27:18;9.30;;;6.10;;
44508;SDS011;30214;52.246;14.408;2023-05-14T05:29:46;11.57;;;6.43;;
44508;SDS011;30214;52.246;14.408;2023-05-14T05:32:13;13.20;;;7.68;;
44508;SDS011;30214;52.246;14.408;2023-05-14T05:34:40;10.55;;;6.78;;
44508;SDS011;30214;52.246;14.408;2023-05-14T05:37:07;9.57;;;6.55;;
44508;SDS011;30214;52.246;14.408;2023-05-14T05:39:38;13.52;;;6.75;;
44508;SDS011;30214;52.246;14.408;2023-05-14T05:42:06;12.63;;;6.43;;
44508;SDS011;30214;52.246;14.408;2023-05-14T05:44:33;11.48;;;6.60;;
44508;SDS011;30214;52.246;14.408;2023-05-14T05:47:00;9.52;;;6.45;;
44508;SDS011;30214;52.246;14.408;2023-05-14T05:49:27;9.73;;;6.38;;
44508;SDS011;30214;52.246;14.408;2023-05-14T05:51:54;11.10;;;6.18;;
44508;SDS011;30214;52.246;14.408;2023-05-14T05:54:21;8.57;;;6.10;;
44508;SDS011;30214;52.246;14.408;2023-05-14T05:56:51;9.05;;;6.40;;
44508;SDS011;30214;52.246;14.408;2023-05-14T05:59:18;17.13;;;6.00;;
44508;SDS011;30214;52.246;14.408;2023-05-14T06:01:45;9.80;;;6.15;;
44508;SDS011;30214;52.246;14.408;2023-05-14T06:04:12;11.88;;;5.90;;
44508;SDS011;30214;52.246;14.408;2023-05-14T06:06:39;10.40;;;6.22;;
44508;SDS011;30214;52.246;14.408;2023-05-14T06:09:06;12.60;;;5.90;;
44508;SDS011;30214;52.246;14.408;2023-05-14T06:11:34;11.18;;;6.00;;
44508;SDS011;30214;52.246;14.408;2023-05-14T06:14:02;13.40;;;6.10;;
44508;SDS011;30214;52.246;14.408;2023-05-14T06:16:29;9.18;;;6.25;;
44508;SDS011;30214;52.246;14.408;2023-05-14T06:18:56;9.88;;;5.65;;
44508;SDS011;30214;52.246;14.408;2023-05-14T06:21:23;9.80;;;6.18;;
44508;SDS011;30214;52.246;14.408;2023-05-14T06:23:51;12.35;;;6.40;;
44508;SDS011;30214;52.246;14.408;2023-05-14T06:26:18;10.82;;;6.15;;
44508;SDS011;30214;52.246;14.408;2023-05-14T06:28:45;15.32;;;6.28;;
44508;SDS011;30214;52.246;14.408;2023-05-14T06:31:13;8.73;;;5.60;;
44508;SDS011;30214;52.246;14.408;2023-05-14T06:33:41;11.20;;;6.93;;
44508;SDS011;30214;52.246;14.408;2023-05-14T06:36:08;15.13;;;5.63;;
44508;SDS011;30214;52.246;14.408;2023-05-14T06:38:35;8.02;;;5.60;;
44508;SDS011;30214;52.246;14.408;2023-05-14T06:41:03;12.40;;;5.57;;
44508;SDS011;30214;52.246;14.408;2023-05-14T06:43:30;11.80;;;5.68;;
44508;SDS011;30214;52.246;14.408;2023-05-14T06:45:57;20.77;;;5.82;;
44508;SDS011;30214;52.246;14.408;2023-05-14T06:48:25;8.45;;;5.43;;
44508;SDS011;30214;52.246;14.408;2023-05-14T06:50:53;10.60;;;5.88;;
44508;SDS011;30214;52.246;14.408;2023-05-14T06:53:20;11.30;;;5.45;;
44508;SDS011;30214;52.246;14.408;2023-05-14T06:55:47;9.65;;;5.38;;
44508;SDS011;30214;52.246;14.408;2023-05-14T06:58:14;13.43;;;5.57;;
44508;SDS011;30214;52.246;14.408;2023-05-14T07:00:42;9.73;;;5.30;;
44508;SDS011;30214;52.246;14.408;2023-05-14T07:03:09;10.98;;;5.30;;
44508;SDS011;30214;52.246;14.408;2023-05-14T07:05:38;13.07;;;5.60;;
44508;SDS011;30214;52.246;14.408;2023-05-14T07:08:06;9.27;;;5.00;;
44508;SDS011;30214;52.246;14.408;2023-05-14T07:10:33;7.03;;;4.80;;
44508;SDS011;30214;52.246;14.408;2023-05-14T07:13:00;6.68;;;4.43;;
44508;SDS011;30214;52.246;14.408;2023-05-14T07:15:27;11.00;;;4.85;;
44508;SDS011;30214;52.246;14.408;2023-05-14T07:17:54;6.82;;;4.43;;
44508;SDS011;30214;52.246;14.408;2023-05-14T07:20:22;8.95;;;4.78;;
44508;SDS011;30214;52.246;14.408;2023-05-14T07:22:51;9.07;;;4.47;;
44508;SDS011;30214;52.246;14.408;2023-05-14T07:25:18;9.57;;;4.40;;
44508;SDS011;30214;52.246;14.408;2023-05-14T07:27:45;6.85;;;4.30;;
44508;SDS011;30214;52.246;14.408;2023-05-14T07:30:12;7.65;;;4.10;;
44508;SDS011;30214;52.246;14.408;2023-05-14T07:32:39;13.70;;;4.57;;
44508;SDS011;30214;52.246;14.408;2023-05-14T07:35:07;12.20;;;3.95;;
44508;SDS011;30214;52.246;14.408;2023-05-14T07:37:36;7.28;;;3.97;;
44508;SDS011;30214;52.246;14.408;2023-05-14T07:40:05;6.78;;;4.68;;
44508;SDS011;30214;52.246;14.408;2023-05-14T07:42:33;8.60;;;4.50;;
44508;SDS011;30214;52.246;14.408;2023-05-14T07:45:00;14.02;;;4.00;;
44508;SDS011;30214;52.246;14.408;2023-05-14T07:47:28;10.13;;;4.20;;
44508;SDS011;30214;52.246;14.408;2023-05-14T07:49:55;9.63;;;4.10;;
44508;SDS011;30214;52.246;14.408;2023-05-14T07:52:22;11.15;;;3.72;;
44508;SDS011;30214;52.246;14.408;2023-05-14T07:54:50;6.63;;;3.90;;
44508;SDS011;30214;52.246;14.408;2023-05-14T07:57:18;16.10;;;4.57;;
44508;SDS011;30214;52.246;14.408;2023-05-14T07:59:46;8.88;;;4.25;;
44508;SDS011;30214;52.246;14.408;2023-05-14T08:02:14;12.55;;;3.92;;
44508;SDS011;30214;52.246;14.408;2023-05-14T08:04:41;7.95;;;3.50;;
44508;SDS011;30214;52.246;14.408;2023-05-14T08:07:09;5.07;;;3.50;;
44508;SDS011;30214;52.246;14.408;2023-05-14T08:09:36;8.43;;;3.30;;
44508;SDS011;30214;52.246;14.408;2023-05-14T08:12:04;6.55;;;3.30;;
44508;SDS011;30214;52.246;14.408;2023-05-14T08:14:34;9.88;;;3.15;;
44508;SDS011;30214;52.246;14.408;2023-05-14T08:17:01;5.18;;;3.10;;
44508;SDS011;30214;52.246;14.408;2023-05-14T08:19:28;9.20;;;3.22;;
44508;SDS011;30214;52.246;14.408;2023-05-14T08:21:55;5.20;;;3.30;;
44508;SDS011;30214;52.246;14.408;2023-05-14T08:24:22;5.22;;;3.30;;
44508;SDS011;30214;52.246;14.408;2023-05-14T08:26:49;6.25;;;3.00;;
44508;SDS011;30214;52.246;14.408;2023-05-14T08:29:17;7.28;;;3.00;;
44508;SDS011;30214;52.246;14.408;2023-05-14T08:31:52;6.30;;;2.80;;
44508;SDS011;30214;52.246;14.408;2023-05-14T08:34:28;5.22;;;3.13;;
44508;SDS011;30214;52.246;14.408;2023-05-14T08:36:55;9.07;;;3.47;;
44508;SDS011;30214;52.246;14.408;2023-05-14T08:39:23;4.22;;;3.00;;
44508;SDS011;30214;52.246;14.408;2023-05-14T08:41:51;4.07;;;2.70;;
44508;SDS011;30214;52.246;14.408;2023-05-14T08:44:22;5.25;;;3.22;;
44508;SDS011;30214;52.246;14.408;2023-05-14T08:47:00;3.92;;;2.65;;
44508;SDS011;30214;52.246;14.408;2023-05-14T08:49:31;8.27;;;3.00;;
44508;SDS011;30214;52.246;14.408;2023-05-14T08:52:12;6.75;;;3.00;;
44508;SDS011;30214;52.246;14.408;2023-05-14T08:54:45;6.88;;;2.92;;
44508;SDS011;30214;52.246;14.408;2023-05-14T08:57:14;4.90;;;2.63;;
44508;SDS011;30214;52.246;14.408;2023-05-14T08:59:45;6.88;;;3.00;;
44508;SDS011;30214;52.246;14.408;2023-05-14T09:02:14;7.70;;;3.00;;
44508;SDS011;30214;52.246;14.408;2023-05-14T09:04:43;6.85;;;2.70;;
44508;SDS011;30214;52.246;14.408;2023-05-14T09:07:11;7.82;;;3.00;;
44508;SDS011;30214;52.246;14.408;2023-05-14T09:09:39;9.77;;;2.97;;
44508;SDS011;30214;52.246;14.408;2023-05-14T09:12:09;9.57;;;3.20;;
44508;SDS011;30214;52.246;14.408;2023-05-14T09:14:36;5.72;;;2.67;;
44508;SDS011;30214;52.246;14.408;2023-05-14T09:17:03;4.75;;;2.70;;
44508;SDS011;30214;52.246;14.408;2023-05-14T09:19:33;4.57;;;2.47;;
44508;SDS011;30214;52.246;14.408;2023-05-14T09:22:08;8.98;;;2.70;;
44508;SDS011;30214;52.246;14.408;2023-05-14T09:24:38;5.85;;;2.72;;
44508;SDS011;30214;52.246;14.408;2023-05-14T09:27:06;10.00;;;2.78;;
44508;SDS011;30214;52.246;14.408;2023-05-14T09:29:35;5.03;;;3.00;;
44508;SDS011;30214;52.246;14.408;2023-05-14T09:32:02;8.00;;;2.80;;
44508;SDS011;30214;52.246;14.408;2023-05-14T09:34:31;4.43;;;2.38;;
44508;SDS011;30214;52.246;14.408;2023-05-14T09:37:02;8.02;;;2.63;;
44508;SDS011;30214;52.246;14.408;2023-05-14T09:39:33;6.63;;;2.63;;
44508;SDS011;30214;52.246;14.408;2023-05-14T09:42:01;11.05;;;2.90;;
44508;SDS011;30214;52.246;14.408;2023-05-14T09:44:30;6.57;;;2.63;;
44508;SDS011;30214;52.246;14.408;2023-05-14T09:47:00;5.30;;;2.60;;
44508;SDS011;30214;52.246;14.408;2023-05-14T09:49:29;7.03;;;3.00;;
44508;SDS011;30214;52.246;14.408;2023-05-14T09:51:57;7.80;;;2.90;;
44508;SDS011;30214;52.246;14.408;2023-05-14T09:54:27;10.25;;;2.60;;
44508;SDS011;30214;52.246;14.408;2023-05-14T09:56:55;6.60;;;2.60;;
44508;SDS011;30214;52.246;14.408;2023-05-14T09:59:22;9.43;;;2.60;;
44508;SDS011;30214;52.246;14.408;2023-05-14T10:01:50;6.03;;;2.55;;
44508;SDS011;30214;52.246;14.408;2023-05-14T10:04:18;5.20;;;2.72;;
44508;SDS011;30214;52.246;14.408;2023-05-14T10:06:47;6.00;;;2.80;;
44508;SDS011;30214;52.246;14.408;2023-05-14T10:09:19;6.50;;;2.50;;
44508;SDS011;30214;52.246;14.408;2023-05-14T10:11:51;7.72;;;2.83;;
44508;SDS011;30214;52.246;14.408;2023-05-14T10:14:25;5.80;;;2.60;;
44508;SDS011;30214;52.246;14.408;2023-05-14T10:16:59;5.95;;;2.60;;
44508;SDS011;30214;52.246;14.408;2023-05-14T10:19:27;5.50;;;2.35;;
44508;SDS011;30214;52.246;14.408;2023-05-14T10:22:02;7.32;;;2.70;;
44508;SDS011;30214;52.246;14.408;2023-05-14T10:27:03;11.15;;;3.10;;
44508;SDS011;30214;52.246;14.408;2023-05-14T10:29:31;6.22;;;2.95;;
44508;SDS011;30214;52.246;14.408;2023-05-14T10:32:03;5.88;;;2.65;;
44508;SDS011;30214;52.246;14.408;2023-05-14T10:34:34;8.20;;;3.15;;
44508;SDS011;30214;52.246;14.408;2023-05-14T10:37:05;7.47;;;3.25;;
44508;SDS011;30214;52.246;14.408;2023-05-14T10:39:42;6.93;;;2.70;;
44508;SDS011;30214;52.246;14.408;2023-05-14T10:42:11;8.02;;;3.10;;
44508;SDS011;30214;52.246;14.408;2023-05-14T10:44:46;8.95;;;3.00;;
44508;SDS011;30214;52.246;14.408;2023-05-14T10:47:16;9.65;;;3.08;;
44508;SDS011;30214;52.246;14.408;2023-05-14T10:49:44;5.85;;;2.80;;
44508;SDS011;30214;52.246;14.408;2023-05-14T10:52:14;6.10;;;2.80;;
44508;SDS011;30214;52.246;14.408;2023-05-14T10:54:49;5.60;;;2.85;;
44508;SDS011;30214;52.246;14.408;2023-05-14T10:57:17;8.48;;;3.00;;
44508;SDS011;30214;52.246;14.408;2023-05-14T10:59:46;7.82;;;3.35;;
44508;SDS011;30214;52.246;14.408;2023-05-14T11:02:21;5.70;;;3.13;;
44508;SDS011;30214;52.246;14.408;2023-05-14T11:04:56;6.45;;;2.75;;
44508;SDS011;30214;52.246;14.408;2023-05-14T11:07:28;10.40;;;2.55;;
44508;SDS011;30214;52.246;14.408;2023-05-14T11:10:02;7.90;;;3.28;;
44508;SDS011;30214;52.246;14.408;2023-05-14T11:12:31;4.30;;;2.47;;
44508;SDS011;30214;52.246;14.408;2023-05-14T11:15:03;6.25;;;2.90;;
44508;SDS011;30214;52.246;14.408;2023-05-14T11:17:33;5.00;;;2.70;;
44508;SDS011;30214;52.246;14.408;2023-05-14T11:20:02;6.10;;;2.80;;
44508;SDS011;30214;52.246;14.408;2023-05-14T11:22:31;7.13;;;2.40;;
44508;SDS011;30214;52.246;14.408;2023-05-14T11:24:59;10.40;;;2.85;;
44508;SDS011;30214;52.246;14.408;2023-05-14T11:27:27;8.25;;;3.40;;
44508;SDS011;30214;52.246;14.408;2023-05-14T11:29:55;6.97;;;2.78;;
44508;SDS011;30214;52.246;14.408;2023-05-14T11:32:25;6.72;;;2.50;;
44508;SDS011;30214;52.246;14.408;2023-05-14T11:34:52;5.28;;;2.33;;
44508;SDS011;30214;52.246;14.408;2023-05-14T11:37:20;6.30;;;2.50;;
44508;SDS011;30214;52.246;14.408;2023-05-14T11:39:51;4.72;;;2.55;;
44508;SDS011;30214;52.246;14.408;2023-05-14T11:42:20;10.18;;;3.22;;
44508;SDS011;30214;52.246;14.408;2023-05-14T11:44:50;7.85;;;2.80;;
44508;SDS011;30214;52.246;14.408;2023-05-14T11:47:19;4.65;;;2.58;;
44508;SDS011;30214;52.246;14.408;2023-05-14T11:49:47;6.50;;;3.25;;
44508;SDS011;30214;52.246;14.408;2023-05-14T11:52:15;6.30;;;2.60;;
44508;SDS011;30214;52.246;14.408;2023-05-14T11:54:46;5.07;;;2.53;;
44508;SDS011;30214;52.246;14.408;2023-05-14T11:57:15;7.65;;;2.90;;
44508;SDS011;30214;52.246;14.408;2023-05-14T11:59:45;8.07;;;2.90;;
44508;SDS011;30214;52.246;14.408;2023-05-14T12:02:15;9.45;;;3.08;;
44508;SDS011;30214;52.246;14.408;2023-05-14T12:04:44;6.28;;;2.63;;
44508;SDS011;30214;52.246;14.408;2023-05-14T12:07:16;7.15;;;2.47;;
44508;SDS011;30214;52.246;14.408;2023-05-14T12:09:44;4.05;;;2.33;;
44508;SDS011;30214;52.246;14.408;2023-05-14T12:12:14;6.65;;;2.63;;
44508;SDS011;30214;52.246;14.408;2023-05-14T12:14:43;5.70;;;2.47;;
44508;SDS011;30214;52.246;14.408;2023-05-14T12:17:13;10.15;;;2.50;;
44508;SDS011;30214;52.246;14.408;2023-05-14T12:19:45;7.45;;;2.30;;
44508;SDS011;30214;52.246;14.408;2023-05-14T12:22:14;4.65;;;2.55;;
44508;SDS011;30214;52.246;14.408;2023-05-14T12:24:43;4.30;;;2.40;;
44508;SDS011;30214;52.246;14.408;2023-05-14T12:27:20;6.32;;;2.20;;
44508;SDS011;30214;52.246;14.408;2023-05-14T12:29:49;5.00;;;2.40;;
44508;SDS011;30214;52.246;14.408;2023-05-14T12:32:25;4.18;;;2.13;;
44508;SDS011;30214;52.246;14.408;2023-05-14T12:34:52;10.55;;;2.22;;
44508;SDS011;30214;52.246;14.408;2023-05-14T12:37:19;6.13;;;2.00;;
44508;SDS011;30214;52.246;14.408;2023-05-14T12:39:46;5.85;;;2.20;;
44508;SDS011;30214;52.246;14.408;2023-05-14T12:42:14;4.50;;;2.10;;
44508;SDS011;30214;52.246;14.408;2023-05-14T12:44:41;9.93;;;2.00;;
44508;SDS011;30214;52.246;14.408;2023-05-14T12:47:08;5.50;;;2.00;;
44508;SDS011;30214;52.246;14.408;2023-05-14T12:49:39;5.28;;;2.25;;
44508;SDS011;30214;52.246;14.408;2023-05-14T12:52:06;5.32;;;2.60;;
44508;SDS011;30214;52.246;14.408;2023-05-14T12:54:34;4.68;;;2.10;;
44508;SDS011;30214;52.246;14.408;2023-05-14T12:57:02;4.22;;;2.03;;
44508;SDS011;30214;52.246;14.408;2023-05-14T12:59:29;3.83;;;2.40;;
44508;SDS011;30214;52.246;14.408;2023-05-14T13:01:57;6.80;;;2.65;;
44508;SDS011;30214;52.246;14.408;2023-05-14T13:04:24;5.90;;;2.28;;
44508;SDS011;30214;52.246;14.408;2023-05-14T13:06:52;5.15;;;2.40;;
44508;SDS011;30214;52.246;14.408;2023-05-14T13:09:20;3.75;;;2.08;;
44508;SDS011;30214;52.246;14.408;2023-05-14T13:11:47;4.15;;;2.10;;
44508;SDS011;30214;52.246;14.408;2023-05-14T13:14:14;5.38;;;2.03;;
44508;SDS011;30214;52.246;14.408;2023-05-14T13:16:41;3.45;;;2.00;;
44508;SDS011;30214;52.246;14.408;2023-05-14T13:19:08;4.05;;;2.28;;
44508;SDS011;30214;52.246;14.408;2023-05-14T13:21:36;5.40;;;2.30;;
44508;SDS011;30214;52.246;14.408;2023-05-14T13:24:05;10.60;;;2.58;;
44508;SDS011;30214;52.246;14.408;2023-05-14T13:26:34;5.60;;;2.53;;
44508;SDS011;30214;52.246;14.408;2023-05-14T13:29:01;7.68;;;2.30;;
44508;SDS011;30214;52.246;14.408;2023-05-14T13:31:29;7.68;;;2.50;;
44508;SDS011;30214;52.246;14.408;2023-05-14T13:33:56;4.13;;;2.50;;
44508;SDS011;30214;52.246;14.408;2023-05-14T13:36:23;5.63;;;2.53;;
44508;SDS011;30214;52.246;14.408;2023-05-14T13:38:50;7.90;;;2.40;;
44508;SDS011;30214;52.246;14.408;2023-05-14T13:41:19;6.32;;;2.70;;
44508;SDS011;30214;52.246;14.408;2023-05-14T13:43:46;7.43;;;2.42;;
44508;SDS011;30214;52.246;14.408;2023-05-14T13:46:15;4.88;;;2.20;;
44508;SDS011;30214;52.246;14.408;2023-05-14T13:48:43;7.07;;;2.20;;
44508;SDS011;30214;52.246;14.408;2023-05-14T13:51:13;5.65;;;2.50;;
44508;SDS011;30214;52.246;14.408;2023-05-14T13:53:40;4.22;;;2.28;;
44508;SDS011;30214;52.246;14.408;2023-05-14T13:56:07;4.00;;;2.25;;
44508;SDS011;30214;52.246;14.408;2023-05-14T13:58:35;4.85;;;2.35;;
44508;SDS011;30214;52.246;14.408;2023-05-14T14:01:02;5.85;;;2.33;;
44508;SDS011;30214;52.246;14.408;2023-05-14T14:03:32;5.38;;;2.40;;
44508;SDS011;30214;52.246;14.408;2023-05-14T14:06:01;4.97;;;2.20;;
44508;SDS011;30214;52.246;14.408;2023-05-14T14:08:28;6.63;;;2.97;;
44508;SDS011;30214;52.246;14.408;2023-05-14T14:10:55;4.63;;;2.50;;
44508;SDS011;30214;52.246;14.408;2023-05-14T14:13:22;4.72;;;2.47;;
44508;SDS011;30214;52.246;14.408;2023-05-14T14:15:51;4.53;;;2.50;;
44508;SDS011;30214;52.246;14.408;2023-05-14T14:18:18;4.85;;;2.60;;
44508;SDS011;30214;52.246;14.408;2023-05-14T14:20:45;6.20;;;2.40;;
44508;SDS011;30214;52.246;14.408;2023-05-14T14:23:13;5.05;;;2.45;;
44508;SDS011;30214;52.246;14.408;2023-05-14T14:25:40;3.67;;;2.28;;
44508;SDS011;30214;52.246;14.408;2023-05-14T14:28:07;5.65;;;2.50;;
44508;SDS011;30214;52.246;14.408;2023-05-14T14:30:34;6.32;;;2.90;;
44508;SDS011;30214;52.246;14.408;2023-05-14T14:33:03;5.47;;;2.67;;
44508;SDS011;30214;52.246;14.408;2023-05-14T14:35:31;7.22;;;2.63;;
44508;SDS011;30214;52.246;14.408;2023-05-14T14:38:00;4.60;;;2.45;;